Time;durP1;ratioP1;P1;durP2;ratioP2;P2;SDS_P1;SDS_P2;PMS_P1;PMS_P2;Temp;Humidity;BMP_temperature;BMP_pressure;BME280_temperature;BME280_humidity;BME280_pressure;Samples;Min_cycle;Max_cycle;Signal;HPM_P1;HPM_P2
2023/01/22 00:02:18;;;;;;;1999.90;999.90;;;;;;;-0.78;100.00;95267.00;5067899;28;20167;-66
2023/01/22 00:04:43;;;;;;;1999.90;999.90;;;;;;;-0.78;100.00;95262.44;5067360;28;20206;-67
2023/01/22 00:07:09;;;;;;;1999.90;999.90;;;;;;;-0.65;100.00;95260.56;5067577;28;20173;-66
2023/01/22 00:09:34;;;;;;;1999.90;999.90;;;;;;;-0.59;100.00;95251.94;5067897;28;20166;-64
2023/01/22 00:11:59;;;;;;;1999.90;999.90;;;;;;;-0.58;100.00;95225.94;5067664;28;20172;-65
2023/01/22 00:14:25;;;;;;;1999.90;999.90;;;;;;;-0.56;100.00;95229.03;5067244;28;20232;-65
2023/01/22 00:16:50;;;;;;;1999.90;999.90;;;;;;;-0.57;100.00;95220.22;5067094;28;20201;-65
2023/01/22 00:19:15;;;;;;;1999.90;999.90;;;;;;;-0.72;100.00;95230.84;5067593;28;20192;-65
2023/01/22 00:21:41;;;;;;;1999.90;999.90;;;;;;;-0.77;100.00;95231.06;5067691;28;20158;-65
2023/01/22 00:24:06;;;;;;;1999.90;999.90;;;;;;;-0.72;100.00;95234.28;5067169;28;20166;-65
2023/01/22 00:26:32;;;;;;;1999.90;999.90;;;;;;;-0.67;100.00;95235.97;5067579;28;20180;-63
2023/01/22 00:28:57;;;;;;;1999.90;999.90;;;;;;;-0.69;100.00;95238.22;5067749;28;20203;-63
2023/01/22 00:31:22;;;;;;;1999.90;999.90;;;;;;;-0.68;100.00;95239.78;5066922;28;20233;-65
2023/01/22 00:33:48;;;;;;;1999.90;999.90;;;;;;;-0.66;100.00;95237.53;5067066;28;20270;-64
2023/01/22 00:36:19;;;;;;;1999.90;999.90;;;;;;;-0.64;100.00;95235.31;5067608;28;20203;-63
2023/01/22 00:38:44;;;;;;;1999.90;999.90;;;;;;;-0.69;100.00;95238.22;5067423;28;20205;-64
2023/01/22 00:41:11;;;;;;;1999.90;999.90;;;;;;;-0.82;100.00;95245.47;5067164;28;20168;-62
2023/01/22 00:43:37;;;;;;;1999.90;999.90;;;;;;;-0.81;100.00;95246.25;5066941;28;20162;-63
2023/01/22 00:46:04;;;;;;;1999.90;999.90;;;;;;;-0.75;100.00;95250.28;5066697;28;20263;-63
2023/01/22 00:48:29;;;;;;;1999.90;999.90;;;;;;;-0.74;100.00;95238.44;5066739;28;20199;-62
2023/01/22 00:50:55;;;;;;;1999.90;999.90;;;;;;;-0.75;100.00;95234.19;5067069;28;20168;-62
2023/01/22 00:53:20;;;;;;;1999.90;999.90;;;;;;;-0.70;100.00;95236.63;5066827;28;20192;-63
2023/01/22 00:55:54;;;;;;;1999.90;999.90;;;;;;;-0.68;100.00;95229.06;5066855;28;20199;-63
2023/01/22 00:58:20;;;;;;;1999.90;999.90;;;;;;;-0.67;100.00;95226.03;5066617;28;20169;-63
2023/01/22 01:00:46;;;;;;;1999.90;999.90;;;;;;;-0.64;100.00;95236.09;5067155;28;20236;-64
2023/01/22 01:03:29;;;;;;;1999.90;999.90;;;;;;;-0.62;100.00;95233.84;5066737;28;20174;-63
2023/01/22 01:06:11;;;;;;;1999.90;999.90;;;;;;;-0.63;100.00;95242.22;5067252;28;20163;-64
2023/01/22 01:08:41;;;;;;;1999.90;999.90;;;;;;;-0.61;100.00;95234.63;5067606;28;20175;-63
2023/01/22 01:11:13;;;;;;;1999.90;999.90;;;;;;;-0.58;100.00;95233.97;5067149;28;20170;-63
2023/01/22 01:13:41;;;;;;;1999.90;999.90;;;;;;;-0.65;100.00;95244.47;5067136;28;20173;-62
2023/01/22 01:16:12;;;;;;;1999.90;999.90;;;;;;;-0.68;100.00;95239.78;5066484;28;20198;-63
2023/01/22 01:18:37;;;;;;;1999.90;999.90;;;;;;;-0.66;100.00;95240.22;5066565;28;20175;-65
2023/01/22 01:21:06;;;;;;;1999.90;999.90;;;;;;;-0.65;100.00;95242.56;5068030;28;20201;-65
2023/01/22 01:23:31;;;;;;;1999.90;999.90;;;;;;;-0.65;100.00;95249.84;5070920;28;20242;-64
2023/01/22 01:25:57;;;;;;;1999.90;999.90;;;;;;;-0.65;100.00;95245.22;5070359;28;20171;-64
2023/01/22 01:28:23;;;;;;;1999.90;999.90;;;;;;;-0.66;100.00;95240.22;5070651;28;20184;-65
2023/01/22 01:30:49;;;;;;;1999.90;999.90;;;;;;;-0.67;100.00;95241.34;5070702;28;20190;-62
2023/01/22 01:33:14;;;;;;;1999.90;999.90;;;;;;;-0.67;100.00;95236.75;5069928;28;20179;-64
2023/01/22 01:35:40;;;;;;;1999.90;999.90;;;;;;;-0.64;100.00;95243.34;5070537;28;20200;-64
2023/01/22 01:38:06;;;;;;;1999.90;999.90;;;;;;;-0.62;100.00;95238.44;5070671;28;20177;-64
2023/01/22 01:40:32;;;;;;;1999.90;999.90;;;;;;;-0.65;100.00;95236.44;5070078;28;20170;-64
2023/01/22 01:42:58;;;;;;;1999.90;999.90;;;;;;;-0.65;100.00;95237.19;5070099;28;20167;-64
2023/01/22 01:45:32;;;;;;;1999.90;999.90;;;;;;;-0.67;100.00;95241.34;5070018;28;20182;-62
2023/01/22 01:48:23;;;;;;;1999.90;999.90;;;;;;;-0.69;100.00;95238.97;5069624;28;20213;-64
2023/01/22 01:50:58;;;;;;;1999.90;999.90;;;;;;;-0.68;100.00;95229.84;5070301;28;20167;-63
2023/01/22 01:53:25;;;;;;;1999.90;999.90;;;;;;;-0.68;100.00;95229.06;5070382;28;20155;-62
2023/01/22 01:55:51;;;;;;;1999.90;999.90;;;;;;;-0.68;100.00;95224.47;5069621;28;20187;-63
2023/01/22 01:58:20;;;;;;;1999.90;999.90;;;;;;;-0.65;100.00;95225.72;5069768;28;20204;-62
2023/01/22 02:00:49;;;;;;;1999.90;999.90;;;;;;;-0.64;100.00;95214.66;5069969;28;20451;-65
2023/01/22 02:03:15;;;;;;;1999.90;999.90;;;;;;;-0.65;100.00;95206.94;5069710;28;20295;-63
2023/01/22 02:05:40;;;;;;;1999.90;999.90;;;;;;;-0.69;100.00;95203.38;5069564;28;20233;-63
2023/01/22 02:08:07;;;;;;;1999.90;999.90;;;;;;;-0.72;100.00;95196.78;5070105;28;20168;-63
2023/01/22 02:10:33;;;;;;;1999.90;999.90;;;;;;;-0.69;100.00;95200.69;5069561;28;20155;-63
2023/01/22 02:13:04;;;;;;;1999.90;999.90;;;;;;;-0.67;100.00;95182.38;5069602;28;20161;-63
2023/01/22 02:15:29;;;;;;;1999.90;999.90;;;;;;;-0.61;100.00;95186.38;5069831;28;20182;-62
2023/01/22 02:17:54;;;;;;;1999.90;999.90;;;;;;;-0.60;100.00;95179.91;5070004;28;20166;-62
2023/01/22 02:20:20;;;;;;;1999.90;999.90;;;;;;;-0.59;100.00;95173.41;5069425;28;20177;-62
2023/01/22 02:22:45;;;;;;;1999.90;999.90;;;;;;;-0.61;100.00;95170.31;5069317;28;20157;-65
2023/01/22 02:25:11;;;;;;;1999.90;999.90;;;;;;;-0.65;100.00;95162.13;5069591;28;20172;-64
2023/01/22 02:27:37;;;;;;;1999.90;999.90;;;;;;;-0.63;100.00;95161.81;5069809;28;20171;-64
2023/01/22 02:30:03;;;;;;;1999.90;999.90;;;;;;;-0.69;100.00;95168.53;5069249;28;20248;-62
2023/01/22 02:32:29;;;;;;;1999.90;999.90;;;;;;;-0.76;100.00;95171.00;5069114;28;20446;-64
2023/01/22 02:34:55;;;;;;;1999.90;999.90;;;;;;;-0.79;100.00;95163.63;5069427;28;20174;-62
2023/01/22 02:37:20;;;;;;;1999.90;999.90;;;;;;;-0.80;100.00;95172.78;5069144;28;20172;-63
2023/01/22 02:39:46;;;;;;;1999.90;999.90;;;;;;;-0.85;100.00;95168.44;5069040;28;20167;-64
2023/01/22 02:42:12;;;;;;;1999.90;999.90;;;;;;;-0.81;100.00;95163.16;5069278;28;20416;-62
2023/01/22 02:44:37;;;;;;;1999.90;999.90;;;;;;;-0.88;100.00;95162.94;5068893;28;20209;-62
2023/01/22 02:47:03;;;;;;;1999.90;999.90;;;;;;;-0.82;100.00;95159.72;5069217;28;20172;-62
2023/01/22 02:49:28;;;;;;;1999.90;999.90;;;;;;;-0.77;100.00;95161.38;5068853;28;20298;-63
2023/01/22 02:51:54;;;;;;;1999.90;999.90;;;;;;;-0.73;100.00;95146.22;5068508;28;20162;-63
2023/01/22 02:54:19;;;;;;;1999.90;999.90;;;;;;;-0.71;100.00;95143.97;5069247;28;20167;-63
2023/01/22 02:56:44;;;;;;;1999.90;999.90;;;;;;;-0.76;100.00;95149.56;5068681;28;20369;-64
2023/01/22 02:59:10;;;;;;;1999.90;999.90;;;;;;;-0.74;100.00;95142.75;5069023;28;20181;-64
2023/01/22 03:01:35;;;;;;;1999.90;999.90;;;;;;;-0.69;100.00;95131.00;5068881;28;20174;-64
2023/01/22 03:04:09;;;;;;;1999.90;999.90;;;;;;;-0.67;100.00;95131.44;5068571;28;20180;-63
2023/01/22 03:06:36;;;;;;;1999.90;999.90;;;;;;;-0.63;100.00;95124.28;5068745;28;20177;-64
2023/01/22 03:09:01;;;;;;;1999.90;999.90;;;;;;;-0.61;100.00;95127.41;5068960;28;20185;-65
2023/01/22 03:11:28;;;;;;;1999.90;999.90;;;;;;;-0.61;100.00;95128.19;5068184;28;20205;-65
2023/01/22 03:22:08;;;;;;;1999.90;999.90;;;;;;;-0.61;100.00;95117.47;5085978;28;20334;-64
2023/01/22 03:24:33;;;;;;;1999.90;999.90;;;;;;;-0.56;100.00;95127.16;5068557;28;20183;-63
2023/01/22 03:26:59;;;;;;;1999.90;999.90;;;;;;;-0.56;100.00;95130.63;5068179;28;20167;-64
2023/01/22 03:29:24;;;;;;;1999.90;999.90;;;;;;;-0.59;100.00;95133.19;5068099;28;20167;-64
2023/01/22 03:31:49;;;;;;;1999.90;999.90;;;;;;;-0.64;100.00;95138.81;5068001;28;20174;-64
2023/01/22 03:34:16;;;;;;;1999.90;999.90;;;;;;;-0.60;100.00;95131.66;5068051;28;20212;-64
2023/01/22 03:36:42;;;;;;;1999.90;999.90;;;;;;;-0.61;100.00;95138.91;5067932;28;20199;-64
2023/01/22 03:39:08;;;;;;;1999.90;999.90;;;;;;;-0.57;100.00;95145.19;5067814;28;20172;-64
2023/01/22 03:41:34;;;;;;;1999.90;999.90;;;;;;;-0.60;100.00;95134.31;5067901;28;20189;-64
2023/01/22 03:44:00;;;;;;;1999.90;999.90;;;;;;;-0.62;100.00;95142.72;5067306;28;20165;-64
2023/01/22 03:46:26;;;;;;;1999.90;999.90;;;;;;;-0.62;100.00;95144.63;5067726;28;20210;-63
2023/01/22 03:48:52;;;;;;;1999.90;999.90;;;;;;;-0.59;100.00;95149.28;5067269;28;20233;-64
2023/01/22 03:51:18;;;;;;;1999.90;999.90;;;;;;;-0.60;100.00;95153.09;5068566;28;20167;-64
2023/01/22 03:53:45;;;;;;;1999.90;999.90;;;;;;;-0.62;100.00;95152.66;5067767;28;20162;-64
2023/01/22 03:56:16;;;;;;;1999.90;999.90;;;;;;;-0.59;100.00;95157.31;5067574;28;20195;-64
2023/01/22 03:58:42;;;;;;;1999.90;999.90;;;;;;;-0.59;100.00;95151.97;5068122;28;20236;-66
2023/01/22 04:01:11;;;;;;;1999.90;999.90;;;;;;;-0.63;100.00;95161.81;5067497;28;20197;-64
2023/01/22 04:03:36;;;;;;;1999.90;999.90;;;;;;;-0.61;100.00;95164.94;5068078;28;20172;-64
2023/01/22 04:06:02;;;;;;;1999.90;999.90;;;;;;;-0.58;100.00;95165.03;5067853;28;20172;-64
2023/01/22 04:08:30;;;;;;;1999.90;999.90;;;;;;;-0.60;100.00;95166.50;5068152;28;20167;-64
2023/01/22 04:10:56;;;;;;;1999.90;999.90;;;;;;;-0.60;100.00;95161.13;5067327;28;20170;-64
2023/01/22 04:13:23;;;;;;;1999.90;999.90;;;;;;;-0.60;100.00;95166.50;5067459;28;20172;-63
2023/01/22 04:15:48;;;;;;;1999.90;999.90;;;;;;;-0.58;100.00;95169.63;5067248;28;20194;-64
2023/01/22 04:18:14;;;;;;;1999.90;999.90;;;;;;;-0.57;100.00;95165.81;5067313;28;20169;-63
2023/01/22 04:20:39;;;;;;;1999.90;999.90;;;;;;;-0.57;100.00;95168.50;5067181;28;20187;-63
2023/01/22 04:23:06;;;;;;;1999.90;999.90;;;;;;;-0.55;100.00;95164.38;5067127;28;20178;-63
2023/01/22 04:25:33;;;;;;;1999.90;999.90;;;;;;;-0.57;100.00;95171.19;5067421;28;20178;-64
2023/01/22 04:27:58;;;;;;;1999.90;999.90;;;;;;;-0.64;100.00;95171.78;5067135;28;20173;-63
2023/01/22 04:30:24;;;;;;;1999.90;999.90;;;;;;;-0.61;100.00;95165.69;5067635;28;20175;-64
2023/01/22 04:32:49;;;;;;;1999.90;999.90;;;;;;;-0.57;100.00;95168.50;5067090;28;20175;-64
2023/01/22 04:35:14;;;;;;;1999.90;999.90;;;;;;;-0.60;100.00;95161.94;5066978;28;20199;-64
2023/01/22 04:37:40;;;;;;;1999.90;999.90;;;;;;;-0.59;100.00;95168.06;5066788;28;20248;-63
2023/01/22 04:40:06;;;;;;;1999.90;999.90;;;;;;;-0.60;100.00;95163.81;5067405;28;20177;-63
2023/01/22 04:42:32;;;;;;;1999.90;999.90;;;;;;;-0.69;100.00;95168.53;5066908;28;20234;-63
2023/01/22 04:44:57;;;;;;;1999.90;999.90;;;;;;;-0.77;100.00;95177.44;5067016;28;20176;-64
2023/01/22 04:47:23;;;;;;;1999.90;999.90;;;;;;;-0.82;100.00;95172.34;5067056;28;20241;-63
2023/01/22 04:49:49;;;;;;;1999.90;999.90;;;;;;;-0.88;100.00;95181.72;5066803;28;20234;-65
2023/01/22 04:52:14;;;;;;;1999.90;999.90;;;;;;;-0.93;100.00;95169.34;5067561;28;20172;-63
2023/01/22 04:54:40;;;;;;;1999.90;999.90;;;;;;;-0.95;100.00;95168.88;5066857;28;20243;-63
2023/01/22 04:57:05;;;;;;;1999.90;999.90;;;;;;;-0.98;100.00;95166.09;5070843;28;20199;-63
2023/01/22 04:59:31;;;;;;;1999.90;999.90;;;;;;;-0.97;100.00;95167.66;5071404;28;20173;-63
2023/01/22 05:01:57;;;;;;;1999.90;999.90;;;;;;;-1.02;100.00;95160.63;5071284;28;20180;-63
2023/01/22 05:04:22;;;;;;;1999.90;999.90;;;;;;;-1.04;100.00;95162.88;5071457;28;20176;-64
2023/01/22 05:06:48;;;;;;;1999.90;999.90;;;;;;;-1.02;100.00;95151.81;5070949;28;20209;-63
2023/01/22 05:09:14;;;;;;;1999.90;999.90;;;;;;;-0.95;100.00;95144.00;5071284;28;20173;-63
2023/01/22 05:11:40;;;;;;;1999.90;999.90;;;;;;;-0.93;100.00;95131.03;5070855;28;20171;-63
2023/01/22 05:14:05;;;;;;;1999.90;999.90;;;;;;;-0.93;100.00;95134.50;5070810;28;20175;-63
2023/01/22 05:16:31;;;;;;;1999.90;999.90;;;;;;;-0.93;100.00;95136.41;5071047;28;20265;-63
2023/01/22 05:18:56;;;;;;;1999.90;999.90;;;;;;;-0.93;100.00;95125.69;5070744;28;20205;-64
2023/01/22 05:21:21;;;;;;;1999.90;999.90;;;;;;;-0.91;100.00;95121.53;5071167;28;20174;-63
2023/01/22 05:23:47;;;;;;;1999.90;999.90;;;;;;;-0.91;100.00;95116.19;5070514;28;20175;-63
2023/01/22 05:26:12;;;;;;;1999.90;999.90;;;;;;;-0.91;100.00;95123.47;5070834;28;20170;-63
2023/01/22 05:28:38;;;;;;;1999.90;999.90;;;;;;;-0.96;100.00;95123.66;5070938;28;20177;-63
2023/01/22 05:31:03;;;;;;;1999.90;999.90;;;;;;;-0.94;100.00;95119.53;5070884;28;20176;-63
2023/01/22 05:33:29;;;;;;;1999.90;999.90;;;;;;;-0.92;100.00;95113.84;5070286;28;20181;-64
2023/01/22 05:35:59;;;;;;;1999.90;999.90;;;;;;;-0.91;100.00;95120.78;5070486;28;20199;-64
2023/01/22 05:38:26;;;;;;;1999.90;999.90;;;;;;;-0.91;100.00;95123.47;5070597;28;20216;-64
2023/01/22 05:40:52;;;;;;;1999.90;999.90;;;;;;;-0.93;100.00;95125.69;5070076;28;20204;-65
2023/01/22 05:43:17;;;;;;;1999.90;999.90;;;;;;;-0.96;100.00;95121.78;5070105;28;20170;-64
2023/01/22 05:45:42;;;;;;;1999.90;999.90;;;;;;;-0.96;100.00;95139.75;5069698;28;20172;-64
2023/01/22 05:48:08;;;;;;;1999.90;999.90;;;;;;;-0.99;100.00;95132.38;5070150;28;20202;-64
2023/01/22 05:50:33;;;;;;;1999.90;999.90;;;;;;;-1.00;100.00;95141.53;5065050;28;20239;-65
2023/01/22 05:52:58;;;;;;;1999.90;999.90;;;;;;;-1.01;100.00;95145.34;5066059;28;20179;-64
2023/01/22 05:55:24;;;;;;;1999.90;999.90;;;;;;;-1.00;100.00;95141.53;5065701;28;20401;-65
2023/01/22 05:57:49;;;;;;;1999.90;999.90;;;;;;;-0.99;100.00;95145.75;5066065;28;20197;-65
2023/01/22 06:00:15;;;;;;;1999.90;999.90;;;;;;;-1.01;100.00;95150.69;5065350;28;20248;-65
2023/01/22 06:02:40;;;;;;;1999.90;999.90;;;;;;;-1.03;100.00;95152.91;5065072;28;20211;-65
2023/01/22 06:05:06;;;;;;;1999.90;999.90;;;;;;;-1.02;100.00;95157.19;5065802;28;20171;-65
2023/01/22 06:07:32;;;;;;;1999.90;999.90;;;;;;;-1.01;100.00;95156.06;5064763;28;20178;-65
2023/01/22 06:09:57;;;;;;;1999.90;999.90;;;;;;;-1.00;100.00;95155.72;5064981;28;20170;-66
2023/01/22 06:12:23;;;;;;;1999.90;999.90;;;;;;;-1.00;100.00;95158.41;5065087;28;20237;-65
2023/01/22 06:14:49;;;;;;;1999.90;999.90;;;;;;;-0.96;100.00;95158.50;5065625;28;20204;-65
2023/01/22 06:17:14;;;;;;;1999.90;999.90;;;;;;;-0.99;100.00;95164.53;5065540;28;20195;-65
2023/01/22 06:19:40;;;;;;;1999.90;999.90;;;;;;;-1.07;100.00;95168.09;5065685;28;20227;-65
2023/01/22 06:22:05;;;;;;;1999.90;999.90;;;;;;;-1.17;100.00;95177.34;5064941;28;20168;-65
2023/01/22 06:24:30;;;;;;;1999.90;999.90;;;;;;;-1.20;100.00;95179.94;5064901;28;20175;-65
2023/01/22 06:26:56;;;;;;;1999.90;999.90;;;;;;;-1.14;100.00;95189.28;5065355;28;20182;-65
2023/01/22 06:29:21;;;;;;;1999.90;999.90;;;;;;;-1.28;100.00;95197.66;5065349;28;20181;-64
2023/01/22 06:31:47;;;;;;;1999.90;999.90;;;;;;;-1.14;100.00;95205.38;5064807;28;20175;-64
2023/01/22 06:34:12;;;;;;;1999.90;999.90;;;;;;;-1.11;100.00;95212.75;5064667;28;20172;-65
2023/01/22 06:36:37;;;;;;;1999.90;999.90;;;;;;;-1.11;100.00;95220.78;5064785;28;20194;-65
2023/01/22 06:39:03;;;;;;;1999.90;999.90;;;;;;;-1.08;100.00;95222.78;5064729;28;20175;-65
2023/01/22 06:41:29;;;;;;;1999.90;999.90;;;;;;;-1.01;100.00;95231.06;5065153;28;20237;-65
2023/01/22 06:43:54;;;;;;;1999.90;999.90;;;;;;;-1.09;100.00;95240.75;5064667;28;20192;-65
2023/01/22 06:46:19;;;;;;;1999.90;999.90;;;;;;;-1.08;100.00;95247.69;5065526;28;20171;-65
2023/01/22 06:48:45;;;;;;;1999.90;999.90;;;;;;;-0.98;100.00;95246.47;5023573;28;1173555;-65
2023/01/22 06:51:11;;;;;;;1999.90;999.90;;;;;;;-0.96;100.00;95260.31;5065994;28;20171;-64
2023/01/22 06:53:37;;;;;;;1999.90;999.90;;;;;;;-1.01;100.00;95265.88;5065669;28;20250;-65
2023/01/22 06:56:02;;;;;;;1999.90;999.90;;;;;;;-1.07;100.00;95269.88;5065383;28;20200;-66
2023/01/22 06:58:28;;;;;;;1999.90;999.90;;;;;;;-1.10;100.00;95286.59;5065220;28;20361;-64
2023/01/22 07:00:53;;;;;;;1999.90;999.90;;;;;;;-1.22;100.00;95291.94;5065881;28;20163;-65
2023/01/22 07:03:19;;;;;;;1999.90;999.90;;;;;;;-1.33;100.00;95298.84;5065461;28;20199;-65
2023/01/22 07:05:44;;;;;;;1999.90;999.90;;;;;;;-1.32;100.00;95295.81;5065609;28;20164;-65
2023/01/22 07:08:14;;;;;;;1999.90;999.90;;;;;;;-1.19;100.00;95299.31;5065301;28;20191;-65
2023/01/22 07:10:40;;;;;;;1999.90;999.90;;;;;;;-1.25;100.00;95301.44;5065673;28;20317;-64
2023/01/22 07:13:06;;;;;;;1999.90;999.90;;;;;;;-1.30;100.00;95298.19;5065259;28;20158;-65
2023/01/22 07:15:32;;;;;;;1999.90;999.90;;;;;;;-1.17;100.00;95299.78;5065602;28;20192;-64
2023/01/22 07:17:57;;;;;;;1999.90;999.90;;;;;;;-1.08;100.00;95295.91;5064547;28;20170;-65
2023/01/22 07:20:23;;;;;;;1999.90;999.90;;;;;;;-1.06;100.00;95288.31;5064922;28;20191;-65
2023/01/22 07:22:48;;;;;;;1999.90;999.90;;;;;;;-1.01;100.00;95290.00;5065075;28;20234;-64
2023/01/22 07:25:14;;;;;;;1999.90;999.90;;;;;;;-0.98;100.00;95289.34;5065458;28;20236;-65
2023/01/22 07:27:40;;;;;;;1999.90;999.90;;;;;;;-0.97;100.00;95290.88;5065278;28;20325;-65
2023/01/22 07:30:06;;;;;;;1999.90;999.90;;;;;;;-0.92;100.00;95298.69;5064746;28;20162;-64
2023/01/22 07:32:31;;;;;;;1999.90;999.90;;;;;;;-0.86;100.00;95300.06;5064379;28;20163;-64
2023/01/22 07:34:57;;;;;;;1999.90;999.90;;;;;;;-0.86;100.00;95302.75;5064683;28;20170;-64
2023/01/22 07:37:22;;;;;;;1999.90;999.90;;;;;;;-0.86;100.00;95313.47;5064497;28;20261;-64
2023/01/22 07:39:47;;;;;;;1999.90;999.90;;;;;;;-0.82;100.00;95325.88;5064651;28;20240;-64
2023/01/22 07:42:13;;;;;;;1999.90;999.90;;;;;;;-0.75;100.00;95322.63;5064514;28;20262;-64
2023/01/22 07:44:41;;;;;;;1999.90;999.90;;;;;;;-0.68;100.00;95326.34;5065196;28;20170;-64
2023/01/22 07:47:07;;;;;;;1999.90;999.90;;;;;;;-0.66;100.00;95339.38;5064380;28;20247;-65
2023/01/22 07:49:33;;;;;;;1999.90;999.90;;;;;;;-0.61;100.00;95348.00;5064455;28;20245;-64
2023/01/22 07:51:58;;;;;;;1999.90;999.90;;;;;;;-0.61;100.00;95363.31;5064321;28;20226;-65
2023/01/22 07:54:24;;;;;;;1999.90;999.90;;;;;;;-0.57;100.00;95377.59;5065222;28;20194;-65
2023/01/22 07:56:49;;;;;;;1999.90;999.90;;;;;;;-0.51;100.00;95400.41;5064782;28;20190;-65
2023/01/22 07:59:15;;;;;;;1999.90;999.90;;;;;;;-0.45;100.00;95409.78;5064248;28;20198;-65
2023/01/22 08:01:40;;;;;;;1999.90;999.90;;;;;;;-0.40;100.00;95406.91;5064236;28;20170;-65
2023/01/22 08:04:05;;;;;;;1999.90;999.90;;;;;;;-0.34;100.00;95422.44;5064512;28;20256;-66
2023/01/22 08:06:31;;;;;;;1999.90;999.90;;;;;;;-0.35;100.00;95436.19;5064024;28;20167;-65
2023/01/22 08:08:59;;;;;;;1999.90;999.90;;;;;;;-0.32;100.00;95455.06;5064018;28;20172;-65
2023/01/22 08:11:27;;;;;;;1999.90;999.90;;;;;;;-0.23;100.00;95465.72;5063968;28;20240;-65
2023/01/22 08:13:53;;;;;;;1999.90;999.90;;;;;;;-0.16;100.00;95468.63;5064039;28;20198;-66
2023/01/22 08:16:19;;;;;;;1999.90;999.90;;;;;;;-0.10;100.00;95480.72;5063878;28;20262;-65
2023/01/22 08:18:44;;;;;;;1999.90;999.90;;;;;;;-0.07;100.00;95490.78;5064165;28;20175;-66
2023/01/22 08:21:10;;;;;;;1999.90;999.90;;;;;;;0.00;100.00;95504.44;5063829;28;20194;-66
2023/01/22 08:23:35;;;;;;;1999.90;999.90;;;;;;;0.02;100.00;95515.63;5063912;28;20175;-65
2023/01/22 08:26:02;;;;;;;1999.90;999.90;;;;;;;0.12;100.00;95515.19;5063701;28;20190;-65
2023/01/22 08:28:30;;;;;;;1999.90;999.90;;;;;;;0.17;100.00;95528.38;5064102;28;20239;-65
2023/01/22 08:30:58;;;;;;;1999.90;999.90;;;;;;;0.29;100.00;95544.50;5063577;28;20174;-66
2023/01/22 08:33:23;;;;;;;1999.90;999.90;;;;;;;0.36;100.00;95563.53;5063626;28;20169;-65
2023/01/22 08:35:49;;;;;;;1999.90;999.90;;;;;;;0.47;100.00;95586.13;5063663;28;20199;-65
2023/01/22 08:38:14;;;;;;;1999.90;999.90;;;;;;;0.44;100.00;95610.22;5063616;28;20382;-65
2023/01/22 08:40:39;;;;;;;1999.90;999.90;;;;;;;0.28;100.00;95631.53;5063595;28;20178;-65
2023/01/22 08:43:05;;;;;;;1999.90;999.90;;;;;;;0.41;100.00;95640.41;5064301;28;20202;-65
2023/01/22 08:45:30;;;;;;;1999.90;999.90;;;;;;;0.49;100.00;95655.63;5063572;28;20223;-65
2023/01/22 08:47:58;;;;;;;1999.90;999.90;;;;;;;0.62;100.00;95658.00;5063549;28;20222;-66
2023/01/22 08:50:23;;;;;;;1999.90;999.90;;;;;;;0.55;100.00;95670.44;5063597;28;20218;-65
2023/01/22 08:52:49;;;;;;;1999.90;999.90;;;;;;;0.73;100.00;95677.19;5063555;28;20180;-66
2023/01/22 08:55:14;;;;;;;1999.90;999.90;;;;;;;0.67;100.00;95687.38;5063642;28;20364;-66
2023/01/22 08:57:39;;;;;;;1999.90;999.90;;;;;;;0.79;100.00;95700.00;5063522;28;20168;-65
2023/01/22 09:00:06;;;;;;;1999.90;999.90;;;;;;;0.82;100.00;95705.53;5063452;28;20169;-65
2023/01/22 09:02:31;;;;;;;1999.90;999.90;;;;;;;0.93;100.00;95712.03;5063390;28;20173;-65
2023/01/22 09:04:56;;;;;;;1999.90;999.90;;;;;;;1.04;100.00;95723.94;5063881;28;20173;-65
2023/01/22 09:07:21;;;;;;;1999.90;999.90;;;;;;;1.16;100.00;95729.31;5063610;28;20251;-66
2023/01/22 09:09:47;;;;;;;1999.90;999.90;;;;;;;1.21;100.00;95734.47;5063623;28;20371;-66
2023/01/22 09:12:12;;;;;;;1999.90;999.90;;;;;;;0.97;100.00;95750.56;5063375;28;20236;-66
2023/01/22 09:14:37;;;;;;;1999.90;999.90;;;;;;;1.06;100.00;95758.53;5063850;28;20216;-66
2023/01/22 09:17:03;;;;;;;1999.90;999.90;;;;;;;1.07;100.00;95763.59;5063227;28;20261;-66
2023/01/22 09:19:28;;;;;;;1999.90;999.90;;;;;;;0.77;100.00;95777.50;5063298;28;20391;-66
2023/01/22 09:21:53;;;;;;;1999.90;999.90;;;;;;;0.77;100.00;95781.00;5063537;28;20202;-68
2023/01/22 09:24:19;;;;;;;1999.90;999.90;;;;;;;1.22;100.00;95781.75;5063801;28;20174;-65
2023/01/22 09:26:44;;;;;;;1999.90;999.90;;;;;;;1.18;100.00;95799.69;5063764;28;20196;-65
2023/01/22 09:29:09;;;;;;;1999.90;999.90;;;;;;;1.19;100.00;95801.25;5063609;28;20166;-65
2023/01/22 09:31:36;;;;;;;1999.90;999.90;;;;;;;0.99;100.00;95807.47;5063254;28;20173;-67
2023/01/22 09:34:02;;;;;;;1999.90;999.90;;;;;;;0.72;100.00;95809.97;5063614;28;20170;-66
2023/01/22 09:36:28;;;;;;;1999.90;999.90;;;;;;;0.75;100.00;95811.97;5063338;28;20201;-66
2023/01/22 09:38:53;;;;;;;1999.90;999.90;;;;;;;0.68;100.00;95817.88;5062853;28;20173;-67
2023/01/22 09:41:28;;;;;;;1999.90;999.90;;;;;;;0.55;100.00;95802.84;5063515;28;20170;-66
2023/01/22 09:43:58;;;;;;;1999.90;999.90;;;;;;;0.55;100.00;95808.22;5066784;28;20208;-68
2023/01/22 09:46:30;;;;;;;1999.90;999.90;;;;;;;0.84;100.00;95791.97;5067199;28;20209;-66
2023/01/22 09:49:02;;;;;;;1999.90;999.90;;;;;;;0.83;100.00;95782.34;5066888;28;20225;-66
2023/01/22 09:51:28;;;;;;;1999.90;999.90;;;;;;;0.61;100.00;95788.06;5066381;28;20467;-66
2023/01/22 09:53:59;;;;;;;1999.90;999.90;;;;;;;0.52;100.00;95791.97;5066670;28;20234;-66
2023/01/22 09:56:33;;;;;;;1999.90;999.90;;;;;;;0.52;100.00;95787.38;5066489;28;20193;-65
2023/01/22 09:59:02;;;;;;;1999.90;999.90;;;;;;;0.31;100.00;95780.44;5066947;28;20166;-66
2023/01/22 10:01:28;;;;;;;1999.90;999.90;;;;;;;0.36;100.00;95772.97;5066379;28;20199;-65
2023/01/22 10:04:00;;;;;;;1999.90;999.90;;;;;;;0.46;100.00;95761.03;5066965;28;20166;-67
2023/01/22 10:06:27;;;;;;;1999.90;999.90;;;;;;;0.64;100.00;95763.25;5066908;28;20174;-66
2023/01/22 10:09:14;;;;;;;1999.90;999.90;;;;;;;0.74;100.00;95760.16;5066366;28;20166;-66
2023/01/22 10:11:44;;;;;;;1999.90;999.90;;;;;;;0.55;100.00;95759.06;5066906;28;20445;-65
2023/01/22 10:14:14;;;;;;;1999.90;999.90;;;;;;;0.76;100.00;95757.13;5066238;28;20168;-65
2023/01/22 10:16:40;;;;;;;1999.90;999.90;;;;;;;1.03;100.00;95760.00;5066098;28;20198;-66
2023/01/22 10:19:20;;;;;;;1999.90;999.90;;;;;;;1.21;100.00;95774.03;5065821;28;20204;-64
2023/01/22 10:21:57;;;;;;;1999.90;999.90;;;;;;;1.20;100.00;95789.34;5066654;28;20442;-66
2023/01/22 10:24:22;;;;;;;1999.90;999.90;;;;;;;1.31;100.00;95793.19;5066315;28;20191;-66
2023/01/22 10:26:53;;;;;;;1999.90;999.90;;;;;;;1.21;100.00;95806.28;5066522;28;20170;-66
2023/01/22 10:29:30;;;;;;;1999.90;999.90;;;;;;;1.14;100.00;95809.53;5065890;28;20173;-66
2023/01/22 10:32:01;;;;;;;1999.90;999.90;;;;;;;1.18;100.00;95818.50;5066486;28;20173;-67
2023/01/22 10:34:29;;;;;;;1999.90;999.90;;;;;;;1.56;100.00;95821.69;5066324;28;20176;-66
2023/01/22 10:36:59;;;;;;;1999.90;999.90;;;;;;;1.87;100.00;95835.41;5066328;28;20217;-67
2023/01/22 10:39:25;;;;;;;1999.90;999.90;;;;;;;1.77;100.00;95849.28;5066201;28;20166;-65
2023/01/22 10:42:00;;;;;;;1999.90;999.90;;;;;;;2.11;100.00;95854.22;5065765;28;20449;-66
2023/01/22 10:44:25;;;;;;;1999.90;999.90;;;;;;;2.46;100.00;95859.91;5065834;28;20165;-65
2023/01/22 10:46:53;;;;;;;1999.90;999.90;;;;;;;2.78;100.00;95865.13;5065567;28;20204;-65
2023/01/22 10:49:23;;;;;;;1999.90;999.90;;;;;;;3.22;100.00;95877.53;5065620;28;20222;-64
2023/01/22 10:51:56;;;;;;;1999.90;999.90;;;;;;;3.57;100.00;95893.88;5065537;28;20170;-66
2023/01/22 10:54:32;;;;;;;1999.90;999.90;;;;;;;3.81;100.00;95909.16;5064878;28;20208;-65
2023/01/22 10:57:05;;;;;;;1999.90;999.90;;;;;;;3.64;100.00;95914.88;5066123;28;20205;-67